Weather observations for the past three days for
Lawton, Lawton Municipal Airport
Imperial (Metric)
Date Time (cdt) Wind (mph) Vis. (mi.) Weather Sky Cond. Temperature (ºF) Relative Humidity Wind Chill (°F) Heat Index (°F) Pressure Precipitation (in)
Air Dwpt 6 hour altimeter (in) sea level (mb) 1 hr 3 hr 6 hr
Max. Min.
06 06:53 NE 15 10.00 Fair CLR 50 39.9 51.1 50 68% 45 29.97 1014.9
06 05:53 N 18 G 25 10.00 Mostly Cloudy BKN031 50 37.9 63% 44 29.95 1014.0
06 04:53 N 13 G 25 10.00 Overcast OVC027 51.1 39 64% 29.94 1013.8
06 03:53 N 12 10.00 Overcast OVC026 51.1 39.9 66% 29.95 1013.8
06 02:53 NE 15 G 22 10.00 Overcast OVC022 51.1 42.1 71% 29.9 1012.3
06 01:53 NE 20 G 24 10.00 Overcast OVC017 51.1 44.1 77% 29.89 1011.9
06 00:53 N 13 10.00 Overcast OVC018 51.1 44.1 55.9 51.1 77% 29.89 1011.8
05 23:53 NE 17 10.00 Overcast OVC019 51.1 44.1 77% 29.88 1011.6
05 22:53 NE 18 G 25 10.00 Overcast OVC018 52 44.1 75% 29.88 1011.5
05 21:53 NE 15 G 26 10.00 Overcast OVC022 52 44.1 75% 29.86 1010.7
05 20:53 N 20 G 29 10.00 Overcast OVC023 53.1 44.1 72% 29.84 1009.9
05 19:53 N 18 G 29 10.00 Overcast OVC024 54 45 72% 29.8 1008.5
05 18:53 N 18 G 28 10.00 Overcast OVC026 55 46 66 55 72% 29.8 1008.6
05 17:53 N 18 10.00 Overcast BKN021 OVC026 57 46.9 69% 29.79 1008.3
05 16:53 N 17 G 26 10.00 Overcast OVC021 57.9 48.9 72% 29.79 1008.3
05 15:53 N 18 10.00 Overcast OVC024 61 50 67% 29.77 1007.5
05 14:53 N 20 10.00 A Few Clouds FEW025 64 51.1 63% 29.76 1006.9
05 13:53 N 22 G 28 10.00 A Few Clouds and Breezy FEW027 64 52 65% 29.75 1006.5
05 12:53 N 21 G 29 10.00 Fair and Breezy CLR 64.9 53.1 75 64.9 66% 29.74 1006.3
05 11:53 N 18 G 31 10.00 Fair CLR 66.9 55 66% 29.69 1004.4
05 10:53 NW 15 G 29 10.00 Fair CLR 70 59 68% 29.64 1002.4
05 09:53 Vrbl 7 G 16 10.00 Fair CLR 73.9 55.9 54% 29.61 1001.4
05 08:53 Calm 10.00 Fair CLR 69.1 62.1 78% 29.58 1000.5
05 07:53 S 3 10.00 Fair CLR 66 61 84% 29.57 1000.1
05 06:53 S 6 10.00 Fair CLR 64.9 60.1 72 64.9 84% 29.55 999.7
05 05:53 SW 3 10.00 Fair CLR 68 61 78% 29.54 998.9
05 04:53 S 3 10.00 Fair CLR 69.1 61 76% 29.53 998.8
05 03:53 S 5 10.00 Fair CLR 70 62.1 76% 29.54 999.1
05 02:53 S 10 10.00 Fair CLR 70 63 79% 29.54 999.1
05 01:53 S 14 10.00 Fair CLR 71.1 63 76% 29.56 999.7
05 00:53 S 13 10.00 Fair CLR 72 63 82.9 72 73% 29.57 1000.3
04 23:53 S 15 G 24 10.00 Fair CLR 73 63 71% 29.58 1000.6
04 22:53 S 15 G 28 10.00 Fair CLR 75 63 66% 77 29.58 1000.7
04 21:53 S 15 10.00 Fair CLR 75 63 66% 77 29.58 1000.4
04 20:53 S 21 G 31 10.00 Fair and Breezy CLR 78.1 63 60% 80 29.55 999.8
04 19:53 S 18 G 29 10.00 Fair CLR 80.1 62.1 54% 81 29.56 999.9
04 18:53 S 21 G 31 10.00 A Few Clouds and Breezy FEW095 FEW110 82.9 61 88 77 48% 83 29.58 1000.6
04 17:53 S 22 G 33 10.00 Fair and Breezy CLR 84.9 61 45% 85 29.58 1000.8
04 16:53 S 18 G 32 10.00 Fair CLR 86 61 43% 86 29.6 1001.3
04 15:53 S 16 G 28 10.00 Fair CLR 86 60.1 42% 86 29.64 1002.7
04 14:53 S 20 G 28 10.00 Fair CLR 84 59 43% 84 29.68 1003.9
04 13:53 S 16 G 30 10.00 Fair CLR 82 57 43% 82 29.71 1004.9
04 12:53 S 15 G 29 10.00 Fair CLR 77 55 78.1 54 47% 78 29.74 1006.3
04 11:53 S 16 G 31 10.00 Fair CLR 75 53.1 46% 78 29.76 1007.0
04 10:53 S 18 G 26 10.00 Fair CLR 73 53.1 50% 29.78 1007.7
04 09:53 S 15 G 24 10.00 Fair CLR 70 52 53% 29.8 1008.3
04 08:53 S 15 10.00 Fair CLR 63 50 63% 29.81 1008.8
04 07:53 S 8 10.00 Fair CLR 57.9 50 75% 29.82 1009.1
04 06:53 S 7 10.00 Fair CLR 54 48 63 53.1 80% 29.81 1008.7
04 05:53 SE 5 10.00 A Few Clouds FEW120 57 48 72% 29.82 1008.8
04 04:53 S 6 10.00 Fair CLR 55.9 46.9 72% 29.84 1009.6
04 03:53 SE 6 10.00 Fair CLR 57.9 46.9 67% 29.84 1009.5
04 02:53 SE 5 10.00 Fair CLR 59 46 62% 29.86 1010.3
04 01:53 SE 6 10.00 Fair CLR 61 46 58% 29.88 1010.8
04 00:53 S 9 10.00 Fair CLR 63 45 79 63 52% 29.89 1011.3
03 23:53 S 12 G 22 10.00 Fair CLR 64.9 45 49% 29.9 1011.6
03 22:53 S 13 10.00 Fair CLR 66 45 47% 29.91 1012.1
03 21:53 S 13 10.00 Fair CLR 68 44.1 42% 29.91 1011.9
03 20:53 S 10 10.00 Fair CLR 70 44.1 39% 29.9 1011.8
03 19:53 S 15 G 24 10.00 Fair CLR 75 43 32% 77 29.9 1011.7
03 18:53 S 18 G 31 10.00 Fair CLR 79 43 82.9 79 28% 78 29.91 1012.2
03 17:53 S 20 G 29 10.00 Fair CLR 81 43 26% 80 29.91 1012.3
03 16:53 S 15 G 28 10.00 Fair CLR 82 42.1 24% 80 29.93 1012.9
03 15:53 S 16 G 28 10.00 Light Rain CLR 82.9 39 21% 81 29.97 1014.1
03 14:53 S 13 G 25 10.00 Fair CLR 82.9 43 24% 81 30 1015.3
03 13:53 S 13 G 26 10.00 Fair CLR 82 41 23% 80 30.03 1016.2
03 12:53 SW 9 G 25 10.00 Fair CLR 80.1 45 80.1 46 29% 79 30.07 1017.5
03 11:53 W 12 10.00 Fair CLR 77 46.9 35% 78 30.09 1018.4
03 10:53 W 13 G 25 10.00 Fair CLR 73.9 46.9 38% 30.1 1018.7
03 09:53 W 14 G 23 10.00 Fair CLR 70 46 42% 30.11 1018.9
03 08:53 W 10 10.00 Fair CLR 62.1 48 60% 30.1 1018.9
03 07:53 W 3 10.00 Fair CLR 52 46.9 83% 30.1 1018.6
Date Time (cdt) Wind (mph) Vis. (mi.) Weather Sky Cond. Air Dwpt Max. Min. Relative Humidity Wind Chill (°F) Heat Index (°F) altimeter (in) sea level (mb) 1 hr 3 hr 6 hr
6 hour
Temperature (ºF) Pressure Precipitation (in)